sensor_id;sensor_type;location;lat;lon;timestamp;pressure;altitude;pressure_sealevel;temperature;humidity
12349;BME280;5974;42.710;27.258;2023-07-02T00:01:49;99385.00;;;18.79;100.00
12349;BME280;5974;42.710;27.258;2023-07-02T00:04:16;99378.19;;;18.56;100.00
12349;BME280;5974;42.710;27.258;2023-07-02T00:06:45;99381.56;;;18.47;100.00
12349;BME280;5974;42.710;27.258;2023-07-02T00:09:13;99373.63;;;18.47;100.00
12349;BME280;5974;42.710;27.258;2023-07-02T00:11:43;99370.47;;;18.32;100.00
12349;BME280;5974;42.710;27.258;2023-07-02T00:14:11;99374.28;;;18.39;100.00
12349;BME280;5974;42.710;27.258;2023-07-02T00:16:41;99364.09;;;18.35;100.00
12349;BME280;5974;42.710;27.258;2023-07-02T00:19:08;99369.19;;;18.48;100.00
12349;BME280;5974;42.710;27.258;2023-07-02T00:21:35;99360.53;;;18.46;100.00
12349;BME280;5974;42.710;27.258;2023-07-02T00:24:03;99359.97;;;18.42;100.00
12349;BME280;5974;42.710;27.258;2023-07-02T00:26:31;99364.16;;;18.24;100.00
12349;BME280;5974;42.710;27.258;2023-07-02T00:28:58;99363.84;;;18.17;100.00
12349;BME280;5974;42.710;27.258;2023-07-02T00:31:25;99362.47;;;18.23;100.00
12349;BME280;5974;42.710;27.258;2023-07-02T00:33:52;99358.28;;;18.20;100.00
12349;BME280;5974;42.710;27.258;2023-07-02T00:36:19;99349.34;;;18.21;100.00
12349;BME280;5974;42.710;27.258;2023-07-02T00:38:47;99343.03;;;18.13;100.00
12349;BME280;5974;42.710;27.258;2023-07-02T00:41:14;99353.63;;;18.13;100.00
12349;BME280;5974;42.710;27.258;2023-07-02T00:43:43;99344.28;;;18.09;100.00
12349;BME280;5974;42.710;27.258;2023-07-02T00:46:13;99338.59;;;18.13;100.00
12349;BME280;5974;42.710;27.258;2023-07-02T00:48:43;99334.91;;;18.05;100.00
12349;BME280;5974;42.710;27.258;2023-07-02T00:51:13;99327.50;;;18.19;100.00
12349;BME280;5974;42.710;27.258;2023-07-02T00:53:41;99266.91;;;17.96;100.00
12349;BME280;5974;42.710;27.258;2023-07-02T00:56:08;99325.69;;;18.20;100.00
12349;BME280;5974;42.710;27.258;2023-07-02T00:58:38;99325.16;;;18.26;100.00
12349;BME280;5974;42.710;27.258;2023-07-02T01:01:07;99322.44;;;18.37;100.00
12349;BME280;5974;42.710;27.258;2023-07-02T01:03:35;99332.19;;;18.36;100.00
12349;BME280;5974;42.710;27.258;2023-07-02T01:06:03;99329.56;;;18.57;100.00
12349;BME280;5974;42.710;27.258;2023-07-02T01:08:29;99330.00;;;18.62;100.00
12349;BME280;5974;42.710;27.258;2023-07-02T01:10:57;99327.50;;;18.61;100.00
12349;BME280;5974;42.710;27.258;2023-07-02T01:13:26;99315.28;;;18.28;100.00
12349;BME280;5974;42.710;27.258;2023-07-02T01:15:53;99328.91;;;18.44;100.00
12349;BME280;5974;42.710;27.258;2023-07-02T01:18:22;99318.69;;;18.60;100.00
12349;BME280;5974;42.710;27.258;2023-07-02T01:20:51;99319.97;;;18.66;100.00
12349;BME280;5974;42.710;27.258;2023-07-02T01:23:20;99312.63;;;18.69;100.00
12349;BME280;5974;42.710;27.258;2023-07-02T01:25:47;99315.53;;;18.66;100.00
12349;BME280;5974;42.710;27.258;2023-07-02T01:28:17;99311.03;;;18.57;100.00
12349;BME280;5974;42.710;27.258;2023-07-02T01:30:45;99315.28;;;18.28;100.00
12349;BME280;5974;42.710;27.258;2023-07-02T01:33:12;99323.97;;;18.39;100.00
12349;BME280;5974;42.710;27.258;2023-07-02T01:35:39;99314.22;;;18.40;100.00
12349;BME280;5974;42.710;27.258;2023-07-02T01:38:07;99319.69;;;18.38;100.00
12349;BME280;5974;42.710;27.258;2023-07-02T01:40:34;99319.34;;;18.32;100.00
12349;BME280;5974;42.710;27.258;2023-07-02T01:43:01;99323.69;;;18.33;100.00
12349;BME280;5974;42.710;27.258;2023-07-02T01:45:28;99324.22;;;18.27;100.00
12349;BME280;5974;42.710;27.258;2023-07-02T01:47:55;99325.59;;;18.31;100.00
12349;BME280;5974;42.710;27.258;2023-07-02T01:50:21;99343.09;;;18.22;100.00
12349;BME280;5974;42.710;27.258;2023-07-02T01:52:48;99335.78;;;17.73;100.00
12349;BME280;5974;42.710;27.258;2023-07-02T01:55:17;99333.94;;;18.06;100.00
12349;BME280;5974;42.710;27.258;2023-07-02T01:57:44;99328.84;;;18.14;100.00
12349;BME280;5974;42.710;27.258;2023-07-02T02:00:12;99334.06;;;18.04;100.00
12349;BME280;5974;42.710;27.258;2023-07-02T02:02:39;99324.16;;;18.17;100.00
12349;BME280;5974;42.710;27.258;2023-07-02T02:05:06;99335.25;;;18.11;100.00
12349;BME280;5974;42.710;27.258;2023-07-02T02:07:33;99325.00;;;18.18;100.00
12349;BME280;5974;42.710;27.258;2023-07-02T02:10:01;99326.25;;;18.03;100.00
12349;BME280;5974;42.710;27.258;2023-07-02T02:12:29;99312.25;;;17.91;100.00
12349;BME280;5974;42.710;27.258;2023-07-02T02:14:56;99325.81;;;17.98;100.00
12349;BME280;5974;42.710;27.258;2023-07-02T02:17:23;99322.91;;;18.01;100.00
12349;BME280;5974;42.710;27.258;2023-07-02T02:19:50;99321.47;;;17.97;100.00
12349;BME280;5974;42.710;27.258;2023-07-02T02:22:17;99325.47;;;17.91;100.00
12349;BME280;5974;42.710;27.258;2023-07-02T02:24:44;99327.59;;;17.97;100.00
12349;BME280;5974;42.710;27.258;2023-07-02T02:27:10;99324.00;;;17.98;100.00
12349;BME280;5974;42.710;27.258;2023-07-02T02:29:39;99339.28;;;17.95;100.00
12349;BME280;5974;42.710;27.258;2023-07-02T02:32:06;99330.59;;;18.04;100.00
12349;BME280;5974;42.710;27.258;2023-07-02T02:34:33;99331.50;;;18.14;100.00
12349;BME280;5974;42.710;27.258;2023-07-02T02:37:00;99319.19;;;18.24;100.00
12349;BME280;5974;42.710;27.258;2023-07-02T02:39:27;99322.00;;;18.32;100.00
12349;BME280;5974;42.710;27.258;2023-07-02T02:41:54;99316.13;;;18.28;100.00
12349;BME280;5974;42.710;27.258;2023-07-02T02:44:20;99282.72;;;17.86;100.00
12349;BME280;5974;42.710;27.258;2023-07-02T02:46:49;99314.50;;;18.37;100.00
12349;BME280;5974;42.710;27.258;2023-07-02T02:49:15;99310.94;;;18.48;100.00
12349;BME280;5974;42.710;27.258;2023-07-02T02:51:42;99306.97;;;18.53;100.00
12349;BME280;5974;42.710;27.258;2023-07-02T02:54:09;99314.25;;;18.61;100.00
12349;BME280;5974;42.710;27.258;2023-07-02T02:56:36;99318.28;;;18.65;100.00
12349;BME280;5974;42.710;27.258;2023-07-02T02:59:03;99318.44;;;18.63;100.00
12349;BME280;5974;42.710;27.258;2023-07-02T03:01:29;99313.31;;;18.71;100.00
12349;BME280;5974;42.710;27.258;2023-07-02T03:03:59;99315.31;;;18.79;100.00
12349;BME280;5974;42.710;27.258;2023-07-02T03:06:26;99321.59;;;18.87;100.00
12349;BME280;5974;42.710;27.258;2023-07-02T03:08:53;99309.47;;;18.85;100.00
12349;BME280;5974;42.710;27.258;2023-07-02T03:11:19;99314.91;;;18.93;100.00
12349;BME280;5974;42.710;27.258;2023-07-02T03:13:46;99271.91;;;18.70;100.00
12349;BME280;5974;42.710;27.258;2023-07-02T03:16:14;99320.41;;;19.11;100.00
12349;BME280;5974;42.710;27.258;2023-07-02T03:18:41;99319.91;;;19.36;100.00
12349;BME280;5974;42.710;27.258;2023-07-02T03:21:09;99328.53;;;19.19;100.00
12349;BME280;5974;42.710;27.258;2023-07-02T03:23:36;99327.22;;;19.63;100.00
12349;BME280;5974;42.710;27.258;2023-07-02T03:26:03;99317.81;;;19.30;100.00
12349;BME280;5974;42.710;27.258;2023-07-02T03:28:30;99335.25;;;19.32;100.00
12349;BME280;5974;42.710;27.258;2023-07-02T03:30:59;99343.31;;;19.21;100.00
12349;BME280;5974;42.710;27.258;2023-07-02T03:33:25;99335.59;;;19.58;100.00
12349;BME280;5974;42.710;27.258;2023-07-02T03:35:52;99338.50;;;20.22;100.00
12349;BME280;5974;42.710;27.258;2023-07-02T03:38:20;99329.22;;;20.55;100.00
12349;BME280;5974;42.710;27.258;2023-07-02T03:40:47;99334.47;;;20.84;100.00
12349;BME280;5974;42.710;27.258;2023-07-02T03:43:14;99335.25;;;20.94;100.00
12349;BME280;5974;42.710;27.258;2023-07-02T03:45:41;99334.75;;;21.08;100.00
12349;BME280;5974;42.710;27.258;2023-07-02T03:48:08;99331.06;;;21.46;100.00
12349;BME280;5974;42.710;27.258;2023-07-02T03:50:35;99328.50;;;21.72;100.00
12349;BME280;5974;42.710;27.258;2023-07-02T03:53:02;99335.97;;;21.68;100.00
12349;BME280;5974;42.710;27.258;2023-07-02T03:55:30;99341.03;;;21.61;100.00
12349;BME280;5974;42.710;27.258;2023-07-02T03:57:57;99339.38;;;21.78;100.00
12349;BME280;5974;42.710;27.258;2023-07-02T04:00:24;99341.41;;;21.49;100.00
12349;BME280;5974;42.710;27.258;2023-07-02T04:02:51;99336.41;;;21.81;100.00
12349;BME280;5974;42.710;27.258;2023-07-02T04:05:18;99347.03;;;22.34;100.00
12349;BME280;5974;42.710;27.258;2023-07-02T04:07:45;99349.69;;;23.61;100.00
12349;BME280;5974;42.710;27.258;2023-07-02T04:10:12;99346.91;;;24.27;100.00
12349;BME280;5974;42.710;27.258;2023-07-02T04:12:40;99350.25;;;25.48;100.00
12349;BME280;5974;42.710;27.258;2023-07-02T04:15:08;99348.78;;;26.21;92.24
12349;BME280;5974;42.710;27.258;2023-07-02T04:17:35;99344.72;;;27.21;84.34
12349;BME280;5974;42.710;27.258;2023-07-02T04:20:02;99363.88;;;30.76;71.34
12349;BME280;5974;42.710;27.258;2023-07-02T04:22:29;99355.56;;;32.92;59.96
12349;BME280;5974;42.710;27.258;2023-07-02T04:24:56;99367.47;;;34.35;54.84
12349;BME280;5974;42.710;27.258;2023-07-02T04:27:24;99370.63;;;35.59;48.38
12349;BME280;5974;42.710;27.258;2023-07-02T04:29:53;99336.78;;;35.04;46.96
12349;BME280;5974;42.710;27.258;2023-07-02T04:32:21;99377.13;;;35.58;45.49
12349;BME280;5974;42.710;27.258;2023-07-02T04:34:48;99380.47;;;34.44;44.58
12349;BME280;5974;42.710;27.258;2023-07-02T04:37:15;99345.97;;;32.71;48.09
12349;BME280;5974;42.710;27.258;2023-07-02T04:39:41;99342.06;;;31.42;49.64
12349;BME280;5974;42.710;27.258;2023-07-02T04:42:08;99360.78;;;31.50;50.15
12349;BME280;5974;42.710;27.258;2023-07-02T04:44:40;99364.28;;;33.18;48.15
12349;BME280;5974;42.710;27.258;2023-07-02T04:47:10;99360.56;;;31.45;50.19
12349;BME280;5974;42.710;27.258;2023-07-02T04:49:37;99365.31;;;32.50;49.67
12349;BME280;5974;42.710;27.258;2023-07-02T04:52:04;99366.56;;;33.51;48.06
12349;BME280;5974;42.710;27.258;2023-07-02T04:54:31;99371.06;;;34.05;46.59
12349;BME280;5974;42.710;27.258;2023-07-02T04:56:58;99372.03;;;35.50;44.82
12349;BME280;5974;42.710;27.258;2023-07-02T04:59:25;99375.91;;;36.22;43.50
12349;BME280;5974;42.710;27.258;2023-07-02T05:01:52;99371.22;;;35.61;44.34
12349;BME280;5974;42.710;27.258;2023-07-02T05:04:20;99366.91;;;36.55;42.06
12349;BME280;5974;42.710;27.258;2023-07-02T05:06:47;99376.66;;;36.18;42.98
12349;BME280;5974;42.710;27.258;2023-07-02T05:09:14;99371.44;;;35.48;41.96
12349;BME280;5974;42.710;27.258;2023-07-02T05:11:41;99362.91;;;35.68;41.38
12349;BME280;5974;42.710;27.258;2023-07-02T05:14:07;99365.31;;;36.09;42.34
12349;BME280;5974;42.710;27.258;2023-07-02T05:16:34;99328.19;;;35.47;41.73
12349;BME280;5974;42.710;27.258;2023-07-02T05:19:01;99364.19;;;35.94;41.58
12349;BME280;5974;42.710;27.258;2023-07-02T05:21:29;99370.22;;;35.96;40.96
12349;BME280;5974;42.710;27.258;2023-07-02T05:23:56;99381.13;;;35.56;42.27
12349;BME280;5974;42.710;27.258;2023-07-02T05:26:23;99383.22;;;36.22;41.31
12349;BME280;5974;42.710;27.258;2023-07-02T05:28:51;99383.28;;;35.42;41.27
12349;BME280;5974;42.710;27.258;2023-07-02T05:31:18;99386.41;;;34.64;43.04
12349;BME280;5974;42.710;27.258;2023-07-02T05:33:45;99393.56;;;35.92;41.03
12349;BME280;5974;42.710;27.258;2023-07-02T05:36:12;99389.72;;;36.82;40.66
12349;BME280;5974;42.710;27.258;2023-07-02T05:38:40;99357.97;;;38.70;39.44
12349;BME280;5974;42.710;27.258;2023-07-02T05:41:07;99380.94;;;38.69;37.29
12349;BME280;5974;42.710;27.258;2023-07-02T05:43:34;99370.50;;;39.60;36.17
12349;BME280;5974;42.710;27.258;2023-07-02T05:46:01;99372.16;;;39.61;36.64
12349;BME280;5974;42.710;27.258;2023-07-02T05:48:28;99365.50;;;39.37;36.10
12349;BME280;5974;42.710;27.258;2023-07-02T05:50:55;99363.25;;;40.36;34.68
12349;BME280;5974;42.710;27.258;2023-07-02T05:53:21;99370.28;;;39.15;35.74
12349;BME280;5974;42.710;27.258;2023-07-02T05:55:50;99369.47;;;38.09;36.80
12349;BME280;5974;42.710;27.258;2023-07-02T05:58:16;99360.16;;;38.73;36.48
12349;BME280;5974;42.710;27.258;2023-07-02T06:00:43;99364.38;;;39.28;35.76
12349;BME280;5974;42.710;27.258;2023-07-02T06:03:14;99366.66;;;39.04;35.76
12349;BME280;5974;42.710;27.258;2023-07-02T06:05:46;99357.06;;;38.96;36.27
12349;BME280;5974;42.710;27.258;2023-07-02T06:08:14;99351.53;;;39.38;35.39
12349;BME280;5974;42.710;27.258;2023-07-02T06:10:41;99357.44;;;39.82;35.10
12349;BME280;5974;42.710;27.258;2023-07-02T06:13:09;99345.50;;;41.43;34.63
12349;BME280;5974;42.710;27.258;2023-07-02T06:15:36;99344.84;;;41.61;34.00
12349;BME280;5974;42.710;27.258;2023-07-02T06:18:03;99325.06;;;40.90;33.75
12349;BME280;5974;42.710;27.258;2023-07-02T06:20:30;99335.56;;;41.52;33.92
12349;BME280;5974;42.710;27.258;2023-07-02T06:22:57;99309.94;;;41.08;33.68
12349;BME280;5974;42.710;27.258;2023-07-02T06:25:24;99344.53;;;39.73;35.06
12349;BME280;5974;42.710;27.258;2023-07-02T06:27:51;99346.94;;;41.21;33.61
12349;BME280;5974;42.710;27.258;2023-07-02T06:30:21;99341.88;;;43.97;30.36
12349;BME280;5974;42.710;27.258;2023-07-02T06:32:48;99308.69;;;40.40;33.59
12349;BME280;5974;42.710;27.258;2023-07-02T06:35:15;99335.22;;;42.08;33.82
12349;BME280;5974;42.710;27.258;2023-07-02T06:37:42;99328.97;;;40.03;35.08
12349;BME280;5974;42.710;27.258;2023-07-02T06:40:10;99341.78;;;39.00;35.79
12349;BME280;5974;42.710;27.258;2023-07-02T06:42:37;99324.97;;;39.39;36.50
12349;BME280;5974;42.710;27.258;2023-07-02T06:45:05;99322.25;;;39.39;35.29
12349;BME280;5974;42.710;27.258;2023-07-02T06:47:33;99333.09;;;40.41;35.44
12349;BME280;5974;42.710;27.258;2023-07-02T06:50:00;99318.56;;;40.31;36.06
12349;BME280;5974;42.710;27.258;2023-07-02T06:52:27;99335.31;;;40.59;34.26
12349;BME280;5974;42.710;27.258;2023-07-02T06:54:54;99330.50;;;39.44;35.94
12349;BME280;5974;42.710;27.258;2023-07-02T06:57:21;99334.03;;;38.87;36.03
12349;BME280;5974;42.710;27.258;2023-07-02T06:59:49;99336.41;;;37.57;37.10
12349;BME280;5974;42.710;27.258;2023-07-02T07:02:16;99333.31;;;38.60;38.13
12349;BME280;5974;42.710;27.258;2023-07-02T07:04:44;99326.53;;;40.17;34.89
12349;BME280;5974;42.710;27.258;2023-07-02T07:07:11;99319.59;;;41.00;34.61
12349;BME280;5974;42.710;27.258;2023-07-02T07:09:38;99328.44;;;41.95;33.35
12349;BME280;5974;42.710;27.258;2023-07-02T07:12:06;99331.38;;;41.65;34.12
12349;BME280;5974;42.710;27.258;2023-07-02T07:14:33;99333.78;;;42.78;32.83
12349;BME280;5974;42.710;27.258;2023-07-02T07:17:00;99326.59;;;44.83;30.67
12349;BME280;5974;42.710;27.258;2023-07-02T07:19:27;99315.81;;;43.70;32.22
12349;BME280;5974;42.710;27.258;2023-07-02T07:21:55;99317.06;;;44.48;30.40
12349;BME280;5974;42.710;27.258;2023-07-02T07:24:23;99312.03;;;44.36;31.13
12349;BME280;5974;42.710;27.258;2023-07-02T07:26:50;99317.56;;;44.50;30.99
12349;BME280;5974;42.710;27.258;2023-07-02T07:29:16;99312.66;;;41.67;32.64
12349;BME280;5974;42.710;27.258;2023-07-02T07:31:43;99307.06;;;40.08;34.41
12349;BME280;5974;42.710;27.258;2023-07-02T07:34:11;99305.47;;;39.20;35.80
12349;BME280;5974;42.710;27.258;2023-07-02T07:36:38;99306.72;;;37.60;37.20
12349;BME280;5974;42.710;27.258;2023-07-02T07:39:06;99301.59;;;38.64;36.61
12349;BME280;5974;42.710;27.258;2023-07-02T07:41:33;99304.88;;;40.26;36.30
12349;BME280;5974;42.710;27.258;2023-07-02T07:44:00;99271.66;;;40.73;35.44
12349;BME280;5974;42.710;27.258;2023-07-02T07:46:27;99314.75;;;40.22;34.97
12349;BME280;5974;42.710;27.258;2023-07-02T07:48:54;99310.59;;;40.75;35.77
12349;BME280;5974;42.710;27.258;2023-07-02T07:51:21;99305.16;;;41.39;35.34
12349;BME280;5974;42.710;27.258;2023-07-02T07:53:48;99313.03;;;41.50;34.33
12349;BME280;5974;42.710;27.258;2023-07-02T07:56:16;99300.19;;;39.71;35.50
12349;BME280;5974;42.710;27.258;2023-07-02T07:58:43;99266.44;;;39.60;37.09
12349;BME280;5974;42.710;27.258;2023-07-02T08:01:10;99313.78;;;38.41;37.67
12349;BME280;5974;42.710;27.258;2023-07-02T08:03:37;99310.00;;;37.89;38.31
12349;BME280;5974;42.710;27.258;2023-07-02T08:06:05;99312.63;;;36.04;42.00
12349;BME280;5974;42.710;27.258;2023-07-02T08:08:32;99306.75;;;34.99;44.33
12349;BME280;5974;42.710;27.258;2023-07-02T08:10:59;99311.84;;;35.75;43.20
12349;BME280;5974;42.710;27.258;2023-07-02T08:13:27;99301.97;;;35.41;44.29
12349;BME280;5974;42.710;27.258;2023-07-02T08:15:54;99308.13;;;34.61;44.87
12349;BME280;5974;42.710;27.258;2023-07-02T08:18:20;99290.97;;;34.49;45.02
12349;BME280;5974;42.710;27.258;2023-07-02T08:20:47;99305.38;;;33.73;46.63
12349;BME280;5974;42.710;27.258;2023-07-02T08:23:14;99305.56;;;34.02;45.81
12349;BME280;5974;42.710;27.258;2023-07-02T08:25:41;99303.31;;;33.99;46.87
12349;BME280;5974;42.710;27.258;2023-07-02T08:28:08;99296.34;;;34.03;47.18
12349;BME280;5974;42.710;27.258;2023-07-02T08:30:36;99294.75;;;33.54;46.85
12349;BME280;5974;42.710;27.258;2023-07-02T08:33:03;99296.66;;;33.83;47.93
12349;BME280;5974;42.710;27.258;2023-07-02T08:35:30;99294.63;;;33.78;46.82
12349;BME280;5974;42.710;27.258;2023-07-02T08:37:56;99293.91;;;34.13;48.43
12349;BME280;5974;42.710;27.258;2023-07-02T08:40:24;99289.09;;;34.50;47.26
12349;BME280;5974;42.710;27.258;2023-07-02T08:42:50;99278.44;;;34.83;45.57
12349;BME280;5974;42.710;27.258;2023-07-02T08:45:17;99284.44;;;34.97;47.07
12349;BME280;5974;42.710;27.258;2023-07-02T08:47:46;99275.81;;;35.11;45.03
12349;BME280;5974;42.710;27.258;2023-07-02T08:50:13;99278.94;;;34.57;46.22
12349;BME280;5974;42.710;27.258;2023-07-02T08:52:40;99279.66;;;34.75;45.64
12349;BME280;5974;42.710;27.258;2023-07-02T08:55:08;99279.53;;;34.70;47.31
12349;BME280;5974;42.710;27.258;2023-07-02T08:57:35;99280.56;;;34.81;47.83
12349;BME280;5974;42.710;27.258;2023-07-02T09:00:06;99273.84;;;34.83;47.82
12349;BME280;5974;42.710;27.258;2023-07-02T09:02:35;99282.47;;;34.34;49.27
12349;BME280;5974;42.710;27.258;2023-07-02T09:05:04;99272.31;;;34.88;46.17
12349;BME280;5974;42.710;27.258;2023-07-02T09:07:31;99271.19;;;35.12;47.44
12349;BME280;5974;42.710;27.258;2023-07-02T09:09:58;99282.22;;;34.59;48.53
12349;BME280;5974;42.710;27.258;2023-07-02T09:12:25;99273.88;;;34.14;47.52
12349;BME280;5974;42.710;27.258;2023-07-02T09:14:56;99278.09;;;34.79;50.25
12349;BME280;5974;42.710;27.258;2023-07-02T09:17:28;99230.72;;;34.87;47.08
12349;BME280;5974;42.710;27.258;2023-07-02T09:19:56;99271.03;;;34.78;48.12
12349;BME280;5974;42.710;27.258;2023-07-02T09:22:25;99271.22;;;35.57;48.51
12349;BME280;5974;42.710;27.258;2023-07-02T09:24:53;99274.78;;;36.02;45.89
12349;BME280;5974;42.710;27.258;2023-07-02T09:27:20;99268.50;;;35.68;46.46
12349;BME280;5974;42.710;27.258;2023-07-02T09:29:51;99258.13;;;35.54;47.21
12349;BME280;5974;42.710;27.258;2023-07-02T09:32:25;99258.66;;;35.39;47.31
12349;BME280;5974;42.710;27.258;2023-07-02T09:34:54;99269.00;;;35.99;46.28
12349;BME280;5974;42.710;27.258;2023-07-02T09:37:22;99277.19;;;36.32;46.56
12349;BME280;5974;42.710;27.258;2023-07-02T09:39:51;99237.09;;;35.77;48.01
12349;BME280;5974;42.710;27.258;2023-07-02T09:42:20;99275.84;;;36.01;45.35
12349;BME280;5974;42.710;27.258;2023-07-02T09:44:47;99275.50;;;36.48;43.93
12349;BME280;5974;42.710;27.258;2023-07-02T09:47:19;99270.38;;;35.84;46.79
12349;BME280;5974;42.710;27.258;2023-07-02T09:49:49;99280.03;;;35.19;45.55
12349;BME280;5974;42.710;27.258;2023-07-02T09:52:19;99261.94;;;36.14;44.08
12349;BME280;5974;42.710;27.258;2023-07-02T09:54:46;99265.91;;;36.23;43.55
12349;BME280;5974;42.710;27.258;2023-07-02T09:57:14;99266.78;;;36.29;44.11
12349;BME280;5974;42.710;27.258;2023-07-02T09:59:41;99272.22;;;36.62;44.65
12349;BME280;5974;42.710;27.258;2023-07-02T10:02:09;99271.25;;;36.35;44.49
12349;BME280;5974;42.710;27.258;2023-07-02T10:04:40;99264.66;;;36.14;45.44
12349;BME280;5974;42.710;27.258;2023-07-02T10:07:07;99262.75;;;36.31;43.13
12349;BME280;5974;42.710;27.258;2023-07-02T10:09:35;99258.38;;;35.80;43.43
12349;BME280;5974;42.710;27.258;2023-07-02T10:12:15;99253.53;;;34.74;44.36
12349;BME280;5974;42.710;27.258;2023-07-02T10:14:43;99233.28;;;34.94;44.37
12349;BME280;5974;42.710;27.258;2023-07-02T10:17:10;99246.59;;;34.44;45.89
12349;BME280;5974;42.710;27.258;2023-07-02T10:19:37;99243.44;;;33.70;47.33
12349;BME280;5974;42.710;27.258;2023-07-02T10:22:16;99244.66;;;33.56;47.68
12349;BME280;5974;42.710;27.258;2023-07-02T10:24:50;99242.69;;;32.86;47.68
12349;BME280;5974;42.710;27.258;2023-07-02T10:27:20;99246.94;;;32.39;49.36
12349;BME280;5974;42.710;27.258;2023-07-02T10:29:50;99247.63;;;32.09;50.30
12349;BME280;5974;42.710;27.258;2023-07-02T10:32:26;99242.56;;;32.38;49.71
12349;BME280;5974;42.710;27.258;2023-07-02T10:34:53;99234.34;;;32.08;50.24
12349;BME280;5974;42.710;27.258;2023-07-02T10:37:21;99242.31;;;31.72;52.50
12349;BME280;5974;42.710;27.258;2023-07-02T10:39:47;99244.91;;;31.85;52.81
12349;BME280;5974;42.710;27.258;2023-07-02T10:42:14;99248.31;;;32.05;52.28
12349;BME280;5974;42.710;27.258;2023-07-02T10:44:50;99211.00;;;32.32;50.85
12349;BME280;5974;42.710;27.258;2023-07-02T10:47:17;99243.78;;;33.44;50.18
12349;BME280;5974;42.710;27.258;2023-07-02T10:49:44;99252.25;;;33.06;49.51
12349;BME280;5974;42.710;27.258;2023-07-02T10:52:11;99238.97;;;33.16;51.06
12349;BME280;5974;42.710;27.258;2023-07-02T10:54:40;99251.03;;;33.20;50.65
12349;BME280;5974;42.710;27.258;2023-07-02T10:57:07;99236.88;;;33.48;50.30
12349;BME280;5974;42.710;27.258;2023-07-02T10:59:34;99245.47;;;34.79;47.95
12349;BME280;5974;42.710;27.258;2023-07-02T11:02:03;99250.13;;;34.67;48.26
12349;BME280;5974;42.710;27.258;2023-07-02T11:04:30;99253.06;;;34.08;50.13
12349;BME280;5974;42.710;27.258;2023-07-02T11:06:58;99219.75;;;33.77;50.81
12349;BME280;5974;42.710;27.258;2023-07-02T11:09:26;99247.22;;;33.81;48.95
12349;BME280;5974;42.710;27.258;2023-07-02T11:11:55;99251.91;;;34.15;48.20
12349;BME280;5974;42.710;27.258;2023-07-02T11:14:31;99246.72;;;34.25;47.86
12349;BME280;5974;42.710;27.258;2023-07-02T11:16:59;99240.69;;;34.35;49.21
12349;BME280;5974;42.710;27.258;2023-07-02T11:19:29;99247.56;;;33.61;50.62
12349;BME280;5974;42.710;27.258;2023-07-02T11:21:57;99260.31;;;33.72;51.26
12349;BME280;5974;42.710;27.258;2023-07-02T11:24:32;99248.25;;;34.10;49.17
12349;BME280;5974;42.710;27.258;2023-07-02T11:27:00;99257.56;;;34.25;49.88
12349;BME280;5974;42.710;27.258;2023-07-02T11:29:28;99242.75;;;34.91;48.94
12349;BME280;5974;42.710;27.258;2023-07-02T11:32:04;99250.31;;;35.29;48.54
12349;BME280;5974;42.710;27.258;2023-07-02T11:34:32;99244.44;;;34.57;49.75
12349;BME280;5974;42.710;27.258;2023-07-02T11:36:59;99248.97;;;33.75;49.79
12349;BME280;5974;42.710;27.258;2023-07-02T11:39:26;99241.16;;;34.67;49.43
12349;BME280;5974;42.710;27.258;2023-07-02T11:41:53;99252.38;;;34.47;49.58
12349;BME280;5974;42.710;27.258;2023-07-02T11:44:20;99249.88;;;34.34;48.31
12349;BME280;5974;42.710;27.258;2023-07-02T11:46:48;99237.72;;;34.25;47.60
12349;BME280;5974;42.710;27.258;2023-07-02T11:49:15;99250.66;;;33.76;49.76
12349;BME280;5974;42.710;27.258;2023-07-02T11:51:43;99244.59;;;32.85;53.81
12349;BME280;5974;42.710;27.258;2023-07-02T11:54:14;99245.91;;;32.58;54.77
12349;BME280;5974;42.710;27.258;2023-07-02T11:56:41;99251.25;;;31.72;58.32
12349;BME280;5974;42.710;27.258;2023-07-02T11:59:08;99254.50;;;31.11;61.18
12349;BME280;5974;42.710;27.258;2023-07-02T12:01:35;99252.53;;;30.81;61.44
12349;BME280;5974;42.710;27.258;2023-07-02T12:04:03;99244.13;;;31.08;62.43
12349;BME280;5974;42.710;27.258;2023-07-02T12:06:30;99234.78;;;31.42;63.05
12349;BME280;5974;42.710;27.258;2023-07-02T12:08:59;99232.81;;;31.87;62.01
12349;BME280;5974;42.710;27.258;2023-07-02T12:11:25;99243.88;;;32.53;62.82
12349;BME280;5974;42.710;27.258;2023-07-02T12:13:52;99242.78;;;32.79;57.64
12349;BME280;5974;42.710;27.258;2023-07-02T12:16:19;99243.84;;;33.26;55.16
12349;BME280;5974;42.710;27.258;2023-07-02T12:18:46;99241.81;;;33.51;56.17
12349;BME280;5974;42.710;27.258;2023-07-02T12:21:13;99243.34;;;33.89;55.91
12349;BME280;5974;42.710;27.258;2023-07-02T12:23:41;99233.56;;;33.88;55.18
12349;BME280;5974;42.710;27.258;2023-07-02T12:26:09;99229.50;;;34.20;55.63
12349;BME280;5974;42.710;27.258;2023-07-02T12:28:36;99229.25;;;34.10;52.75
12349;BME280;5974;42.710;27.258;2023-07-02T12:31:03;99226.91;;;33.60;55.51
12349;BME280;5974;42.710;27.258;2023-07-02T12:33:29;99230.66;;;34.12;52.83
12349;BME280;5974;42.710;27.258;2023-07-02T12:35:56;99232.31;;;34.13;52.08
12349;BME280;5974;42.710;27.258;2023-07-02T12:38:24;99226.97;;;33.84;52.91
12349;BME280;5974;42.710;27.258;2023-07-02T12:40:51;99225.78;;;33.91;52.44
12349;BME280;5974;42.710;27.258;2023-07-02T12:43:19;99223.88;;;33.50;52.33
12349;BME280;5974;42.710;27.258;2023-07-02T12:45:47;99224.41;;;33.59;52.07
12349;BME280;5974;42.710;27.258;2023-07-02T12:48:14;99221.63;;;33.47;52.90
12349;BME280;5974;42.710;27.258;2023-07-02T12:50:40;99226.97;;;33.84;52.74
12349;BME280;5974;42.710;27.258;2023-07-02T12:53:09;99217.56;;;32.97;52.13
12349;BME280;5974;42.710;27.258;2023-07-02T12:55:35;99221.59;;;33.24;53.83
12349;BME280;5974;42.710;27.258;2023-07-02T12:58:02;99227.69;;;33.01;53.30
12349;BME280;5974;42.710;27.258;2023-07-02T13:00:31;99224.97;;;33.01;53.13